Terminal Aerodrome Forecast
Issued by NWS

Home | Current Version | Previous Version | Text Only | Print | Product List | Glossary On
Versions: 1 2 3 4 5 6 7 8 9 10 11 12 13 14 15 16 17 18 19 20
000
FTUS43 KDVN 172300
TAFBRL
TAF
KBRL 172332Z 1800/1824 34006KT P6SM BKN200
     FM181500 06004KT 5SM -SN BR OVC040
     FM181900 03004KT P6SM OVC050=

USA.gov is the U.S. government's official web portal to all federal, state and local government web resources and services.